sensor_id;sensor_type;location;lat;lon;timestamp;temperature;humidity
25945;SHT31;13742;49.306;8.636;2023-04-06T00:00:41;5.11;58.34
25945;SHT31;13742;49.306;8.636;2023-04-06T00:01:41;5.10;58.56
25945;SHT31;13742;49.306;8.636;2023-04-06T00:02:41;5.08;58.39
25945;SHT31;13742;49.306;8.636;2023-04-06T00:03:41;5.05;57.97
25945;SHT31;13742;49.306;8.636;2023-04-06T00:04:41;5.07;58.37
25945;SHT31;13742;49.306;8.636;2023-04-06T00:05:41;5.04;58.36
25945;SHT31;13742;49.306;8.636;2023-04-06T00:06:41;5.05;58.15
25945;SHT31;13742;49.306;8.636;2023-04-06T00:07:41;5.02;58.22
25945;SHT31;13742;49.306;8.636;2023-04-06T00:08:41;5.02;58.27
25945;SHT31;13742;49.306;8.636;2023-04-06T00:09:41;5.02;57.95
25945;SHT31;13742;49.306;8.636;2023-04-06T00:10:41;5.01;58.13
25945;SHT31;13742;49.306;8.636;2023-04-06T00:11:41;5.01;58.33
25945;SHT31;13742;49.306;8.636;2023-04-06T00:12:41;5.00;58.45
25945;SHT31;13742;49.306;8.636;2023-04-06T00:13:41;4.98;58.17
25945;SHT31;13742;49.306;8.636;2023-04-06T00:14:41;4.98;57.92
25945;SHT31;13742;49.306;8.636;2023-04-06T00:15:41;4.97;58.96
25945;SHT31;13742;49.306;8.636;2023-04-06T00:16:41;4.98;58.68
25945;SHT31;13742;49.306;8.636;2023-04-06T00:17:41;4.97;59.04
25945;SHT31;13742;49.306;8.636;2023-04-06T00:18:41;4.92;59.10
25945;SHT31;13742;49.306;8.636;2023-04-06T00:19:41;4.94;58.82
25945;SHT31;13742;49.306;8.636;2023-04-06T00:20:41;4.90;58.71
25945;SHT31;13742;49.306;8.636;2023-04-06T00:21:41;4.91;58.41
25945;SHT31;13742;49.306;8.636;2023-04-06T00:22:41;4.90;58.98
25945;SHT31;13742;49.306;8.636;2023-04-06T00:23:41;4.83;59.28
25945;SHT31;13742;49.306;8.636;2023-04-06T00:24:41;4.83;59.76
25945;SHT31;13742;49.306;8.636;2023-04-06T00:25:41;4.79;59.91
25945;SHT31;13742;49.306;8.636;2023-04-06T00:26:41;4.73;60.01
25945;SHT31;13742;49.306;8.636;2023-04-06T00:27:41;4.71;60.34
25945;SHT31;13742;49.306;8.636;2023-04-06T00:28:41;4.70;60.28
25945;SHT31;13742;49.306;8.636;2023-04-06T00:29:41;4.64;60.52
25945;SHT31;13742;49.306;8.636;2023-04-06T00:30:41;4.63;60.84
25945;SHT31;13742;49.306;8.636;2023-04-06T00:31:41;4.57;60.85
25945;SHT31;13742;49.306;8.636;2023-04-06T00:32:41;4.55;61.17
25945;SHT31;13742;49.306;8.636;2023-04-06T00:33:41;4.55;61.22
25945;SHT31;13742;49.306;8.636;2023-04-06T00:34:41;4.50;61.34
25945;SHT31;13742;49.306;8.636;2023-04-06T00:35:41;4.52;61.59
25945;SHT31;13742;49.306;8.636;2023-04-06T00:36:41;4.55;61.35
25945;SHT31;13742;49.306;8.636;2023-04-06T00:37:41;4.55;61.12
25945;SHT31;13742;49.306;8.636;2023-04-06T00:38:41;4.53;61.51
25945;SHT31;13742;49.306;8.636;2023-04-06T00:39:42;4.50;61.43
25945;SHT31;13742;49.306;8.636;2023-04-06T00:40:42;4.49;61.66
25945;SHT31;13742;49.306;8.636;2023-04-06T00:41:46;4.52;61.67
25945;SHT31;13742;49.306;8.636;2023-04-06T00:42:41;4.56;61.70
25945;SHT31;13742;49.306;8.636;2023-04-06T00:43:41;4.55;61.55
25945;SHT31;13742;49.306;8.636;2023-04-06T00:44:41;4.56;61.11
25945;SHT31;13742;49.306;8.636;2023-04-06T00:45:41;4.59;61.07
25945;SHT31;13742;49.306;8.636;2023-04-06T00:46:41;4.62;61.34
25945;SHT31;13742;49.306;8.636;2023-04-06T00:47:41;4.62;60.62
25945;SHT31;13742;49.306;8.636;2023-04-06T00:48:41;4.62;60.89
25945;SHT31;13742;49.306;8.636;2023-04-06T00:49:41;4.62;61.24
25945;SHT31;13742;49.306;8.636;2023-04-06T00:50:42;4.63;60.29
25945;SHT31;13742;49.306;8.636;2023-04-06T00:51:41;4.64;60.80
25945;SHT31;13742;49.306;8.636;2023-04-06T00:52:41;4.63;60.70
25945;SHT31;13742;49.306;8.636;2023-04-06T00:53:41;4.63;60.40
25945;SHT31;13742;49.306;8.636;2023-04-06T00:54:41;4.63;60.79
25945;SHT31;13742;49.306;8.636;2023-04-06T00:55:41;4.62;60.75
25945;SHT31;13742;49.306;8.636;2023-04-06T00:56:42;4.59;61.18
25945;SHT31;13742;49.306;8.636;2023-04-06T00:57:41;4.63;60.96
25945;SHT31;13742;49.306;8.636;2023-04-06T00:58:41;4.64;60.84
25945;SHT31;13742;49.306;8.636;2023-04-06T00:59:42;4.64;60.96
25945;SHT31;13742;49.306;8.636;2023-04-06T01:00:41;4.62;61.04
25945;SHT31;13742;49.306;8.636;2023-04-06T01:01:41;4.60;60.62
25945;SHT31;13742;49.306;8.636;2023-04-06T01:02:41;4.60;60.86
25945;SHT31;13742;49.306;8.636;2023-04-06T01:03:42;4.60;61.34
25945;SHT31;13742;49.306;8.636;2023-04-06T01:04:41;4.64;61.50
25945;SHT31;13742;49.306;8.636;2023-04-06T01:05:42;4.63;61.40
25945;SHT31;13742;49.306;8.636;2023-04-06T01:06:41;4.64;60.80
25945;SHT31;13742;49.306;8.636;2023-04-06T01:07:41;4.62;60.61
25945;SHT31;13742;49.306;8.636;2023-04-06T01:08:41;4.59;60.93
25945;SHT31;13742;49.306;8.636;2023-04-06T01:09:41;4.57;60.82
25945;SHT31;13742;49.306;8.636;2023-04-06T01:10:41;4.59;61.42
25945;SHT31;13742;49.306;8.636;2023-04-06T01:11:41;4.59;60.95
25945;SHT31;13742;49.306;8.636;2023-04-06T01:12:41;4.56;61.52
25945;SHT31;13742;49.306;8.636;2023-04-06T01:13:41;4.60;61.27
25945;SHT31;13742;49.306;8.636;2023-04-06T01:14:41;4.57;60.95
25945;SHT31;13742;49.306;8.636;2023-04-06T01:15:42;4.56;61.16
25945;SHT31;13742;49.306;8.636;2023-04-06T01:16:41;4.52;61.29
25945;SHT31;13742;49.306;8.636;2023-04-06T01:17:41;4.52;60.99
25945;SHT31;13742;49.306;8.636;2023-04-06T01:18:42;4.50;60.92
25945;SHT31;13742;49.306;8.636;2023-04-06T01:19:41;4.48;61.18
25945;SHT31;13742;49.306;8.636;2023-04-06T01:20:41;4.46;61.01
25945;SHT31;13742;49.306;8.636;2023-04-06T01:21:41;4.46;61.04
25945;SHT31;13742;49.306;8.636;2023-04-06T01:22:41;4.48;61.72
25945;SHT31;13742;49.306;8.636;2023-04-06T01:23:43;4.45;61.54
25945;SHT31;13742;49.306;8.636;2023-04-06T01:24:41;4.43;61.25
25945;SHT31;13742;49.306;8.636;2023-04-06T01:25:41;4.39;61.60
25945;SHT31;13742;49.306;8.636;2023-04-06T01:26:44;4.33;61.86
25945;SHT31;13742;49.306;8.636;2023-04-06T01:27:41;4.32;62.03
25945;SHT31;13742;49.306;8.636;2023-04-06T01:28:41;4.33;62.15
25945;SHT31;13742;49.306;8.636;2023-04-06T01:29:41;4.29;61.99
25945;SHT31;13742;49.306;8.636;2023-04-06T01:30:42;4.30;61.98
25945;SHT31;13742;49.306;8.636;2023-04-06T01:31:41;4.26;62.26
25945;SHT31;13742;49.306;8.636;2023-04-06T01:32:41;4.25;62.42
25945;SHT31;13742;49.306;8.636;2023-04-06T01:33:41;4.22;62.19
25945;SHT31;13742;49.306;8.636;2023-04-06T01:34:41;4.21;62.28
25945;SHT31;13742;49.306;8.636;2023-04-06T01:35:41;4.22;62.38
25945;SHT31;13742;49.306;8.636;2023-04-06T01:36:41;4.18;62.38
25945;SHT31;13742;49.306;8.636;2023-04-06T01:37:41;4.16;62.45
25945;SHT31;13742;49.306;8.636;2023-04-06T01:38:41;4.16;62.60
25945;SHT31;13742;49.306;8.636;2023-04-06T01:39:42;4.13;62.14
25945;SHT31;13742;49.306;8.636;2023-04-06T01:40:41;4.13;62.35
25945;SHT31;13742;49.306;8.636;2023-04-06T01:41:41;4.13;62.26
25945;SHT31;13742;49.306;8.636;2023-04-06T01:42:42;4.13;62.78
25945;SHT31;13742;49.306;8.636;2023-04-06T01:43:41;4.12;62.75
25945;SHT31;13742;49.306;8.636;2023-04-06T01:44:41;4.11;62.75
25945;SHT31;13742;49.306;8.636;2023-04-06T01:45:41;4.09;62.40
25945;SHT31;13742;49.306;8.636;2023-04-06T01:46:41;4.08;62.58
25945;SHT31;13742;49.306;8.636;2023-04-06T01:47:41;4.06;62.53
25945;SHT31;13742;49.306;8.636;2023-04-06T01:48:41;4.06;62.72
25945;SHT31;13742;49.306;8.636;2023-04-06T01:49:41;4.04;63.30
25945;SHT31;13742;49.306;8.636;2023-04-06T01:50:41;4.05;63.44
25945;SHT31;13742;49.306;8.636;2023-04-06T01:51:41;4.02;63.21
25945;SHT31;13742;49.306;8.636;2023-04-06T01:52:41;4.02;62.73
25945;SHT31;13742;49.306;8.636;2023-04-06T01:53:41;4.01;63.36
25945;SHT31;13742;49.306;8.636;2023-04-06T01:54:41;3.98;63.43
25945;SHT31;13742;49.306;8.636;2023-04-06T01:55:41;3.97;63.40
25945;SHT31;13742;49.306;8.636;2023-04-06T01:56:41;3.95;63.58
25945;SHT31;13742;49.306;8.636;2023-04-06T01:57:41;3.95;63.54
25945;SHT31;13742;49.306;8.636;2023-04-06T01:58:41;3.94;63.69
25945;SHT31;13742;49.306;8.636;2023-04-06T01:59:41;3.94;63.72
25945;SHT31;13742;49.306;8.636;2023-04-06T02:00:41;3.92;63.65
25945;SHT31;13742;49.306;8.636;2023-04-06T02:01:41;3.91;63.80
25945;SHT31;13742;49.306;8.636;2023-04-06T02:02:41;3.92;63.33
25945;SHT31;13742;49.306;8.636;2023-04-06T02:03:41;3.92;63.56
25945;SHT31;13742;49.306;8.636;2023-04-06T02:04:41;3.97;62.83
25945;SHT31;13742;49.306;8.636;2023-04-06T02:05:41;3.95;63.45
25945;SHT31;13742;49.306;8.636;2023-04-06T02:06:41;3.95;63.45
25945;SHT31;13742;49.306;8.636;2023-04-06T02:07:41;3.94;63.71
25945;SHT31;13742;49.306;8.636;2023-04-06T02:08:41;3.94;63.08
25945;SHT31;13742;49.306;8.636;2023-04-06T02:09:41;3.92;63.36
25945;SHT31;13742;49.306;8.636;2023-04-06T02:10:41;3.90;63.37
25945;SHT31;13742;49.306;8.636;2023-04-06T02:11:41;3.87;63.50
25945;SHT31;13742;49.306;8.636;2023-04-06T02:12:41;3.88;63.21
25945;SHT31;13742;49.306;8.636;2023-04-06T02:13:41;3.87;63.96
25945;SHT31;13742;49.306;8.636;2023-04-06T02:14:41;3.88;63.81
25945;SHT31;13742;49.306;8.636;2023-04-06T02:15:41;3.85;63.77
25945;SHT31;13742;49.306;8.636;2023-04-06T02:16:41;3.84;63.96
25945;SHT31;13742;49.306;8.636;2023-04-06T02:17:42;3.82;63.88
25945;SHT31;13742;49.306;8.636;2023-04-06T02:18:41;3.81;63.95
25945;SHT31;13742;49.306;8.636;2023-04-06T02:19:41;3.84;63.52
25945;SHT31;13742;49.306;8.636;2023-04-06T02:20:41;3.82;62.98
25945;SHT31;13742;49.306;8.636;2023-04-06T02:21:41;3.85;63.19
25945;SHT31;13742;49.306;8.636;2023-04-06T02:22:41;3.82;63.36
25945;SHT31;13742;49.306;8.636;2023-04-06T02:23:41;3.82;63.99
25945;SHT31;13742;49.306;8.636;2023-04-06T02:24:41;3.80;63.62
25945;SHT31;13742;49.306;8.636;2023-04-06T02:25:41;3.80;63.22
25945;SHT31;13742;49.306;8.636;2023-04-06T02:26:41;3.80;63.63
25945;SHT31;13742;49.306;8.636;2023-04-06T02:27:41;3.82;63.45
25945;SHT31;13742;49.306;8.636;2023-04-06T02:28:41;3.81;63.15
25945;SHT31;13742;49.306;8.636;2023-04-06T02:29:41;3.81;63.45
25945;SHT31;13742;49.306;8.636;2023-04-06T02:30:41;3.81;63.73
25945;SHT31;13742;49.306;8.636;2023-04-06T02:31:41;3.77;63.85
25945;SHT31;13742;49.306;8.636;2023-04-06T02:32:41;3.75;64.11
25945;SHT31;13742;49.306;8.636;2023-04-06T02:33:41;3.74;63.79
25945;SHT31;13742;49.306;8.636;2023-04-06T02:34:41;3.74;64.35
25945;SHT31;13742;49.306;8.636;2023-04-06T02:35:41;3.74;64.46
25945;SHT31;13742;49.306;8.636;2023-04-06T02:36:41;3.75;63.84
25945;SHT31;13742;49.306;8.636;2023-04-06T02:37:41;3.74;64.51
25945;SHT31;13742;49.306;8.636;2023-04-06T02:38:41;3.74;63.71
25945;SHT31;13742;49.306;8.636;2023-04-06T02:39:41;3.75;63.50
25945;SHT31;13742;49.306;8.636;2023-04-06T02:40:41;3.74;63.78
25945;SHT31;13742;49.306;8.636;2023-04-06T02:41:41;3.75;64.12
25945;SHT31;13742;49.306;8.636;2023-04-06T02:42:41;3.77;64.69
25945;SHT31;13742;49.306;8.636;2023-04-06T02:43:41;3.74;63.94
25945;SHT31;13742;49.306;8.636;2023-04-06T02:44:42;3.74;63.68
25945;SHT31;13742;49.306;8.636;2023-04-06T02:45:41;3.75;63.79
25945;SHT31;13742;49.306;8.636;2023-04-06T02:46:41;3.74;63.70
25945;SHT31;13742;49.306;8.636;2023-04-06T02:47:41;3.75;63.43
25945;SHT31;13742;49.306;8.636;2023-04-06T02:48:41;3.73;64.43
25945;SHT31;13742;49.306;8.636;2023-04-06T02:49:41;3.73;64.66
25945;SHT31;13742;49.306;8.636;2023-04-06T02:50:41;3.71;64.13
25945;SHT31;13742;49.306;8.636;2023-04-06T02:51:41;3.66;64.60
25945;SHT31;13742;49.306;8.636;2023-04-06T02:52:41;3.69;64.79
25945;SHT31;13742;49.306;8.636;2023-04-06T02:53:41;3.67;64.57
25945;SHT31;13742;49.306;8.636;2023-04-06T02:54:41;3.61;64.82
25945;SHT31;13742;49.306;8.636;2023-04-06T02:55:41;3.60;64.78
25945;SHT31;13742;49.306;8.636;2023-04-06T02:56:41;3.63;65.06
25945;SHT31;13742;49.306;8.636;2023-04-06T02:57:41;3.60;64.79
25945;SHT31;13742;49.306;8.636;2023-04-06T02:58:41;3.54;65.32
25945;SHT31;13742;49.306;8.636;2023-04-06T02:59:41;3.54;65.16
25945;SHT31;13742;49.306;8.636;2023-04-06T03:00:41;3.54;65.16
25945;SHT31;13742;49.306;8.636;2023-04-06T03:01:41;3.54;64.88
25945;SHT31;13742;49.306;8.636;2023-04-06T03:02:41;3.53;65.31
25945;SHT31;13742;49.306;8.636;2023-04-06T03:03:41;3.53;65.11
25945;SHT31;13742;49.306;8.636;2023-04-06T03:04:42;3.53;64.91
25945;SHT31;13742;49.306;8.636;2023-04-06T03:05:41;3.47;65.28
25945;SHT31;13742;49.306;8.636;2023-04-06T03:06:41;3.47;65.55
25945;SHT31;13742;49.306;8.636;2023-04-06T03:07:41;3.45;65.50
25945;SHT31;13742;49.306;8.636;2023-04-06T03:08:41;3.45;65.60
25945;SHT31;13742;49.306;8.636;2023-04-06T03:09:41;3.46;65.57
25945;SHT31;13742;49.306;8.636;2023-04-06T03:10:41;3.40;65.60
25945;SHT31;13742;49.306;8.636;2023-04-06T03:11:41;3.39;65.88
25945;SHT31;13742;49.306;8.636;2023-04-06T03:12:41;3.38;65.99
25945;SHT31;13742;49.306;8.636;2023-04-06T03:13:41;3.38;66.02
25945;SHT31;13742;49.306;8.636;2023-04-06T03:14:41;3.39;65.82
25945;SHT31;13742;49.306;8.636;2023-04-06T03:15:41;3.36;65.59
25945;SHT31;13742;49.306;8.636;2023-04-06T03:16:41;3.33;65.86
25945;SHT31;13742;49.306;8.636;2023-04-06T03:17:41;3.38;65.89
25945;SHT31;13742;49.306;8.636;2023-04-06T03:18:41;3.36;65.62
25945;SHT31;13742;49.306;8.636;2023-04-06T03:19:41;3.36;65.68
25945;SHT31;13742;49.306;8.636;2023-04-06T03:20:41;3.35;65.48
25945;SHT31;13742;49.306;8.636;2023-04-06T03:21:41;3.36;65.13
25945;SHT31;13742;49.306;8.636;2023-04-06T03:22:41;3.35;65.15
25945;SHT31;13742;49.306;8.636;2023-04-06T03:23:41;3.29;65.82
25945;SHT31;13742;49.306;8.636;2023-04-06T03:24:41;3.23;65.98
25945;SHT31;13742;49.306;8.636;2023-04-06T03:25:41;3.23;65.91
25945;SHT31;13742;49.306;8.636;2023-04-06T03:26:41;3.23;66.66
25945;SHT31;13742;49.306;8.636;2023-04-06T03:27:41;3.18;66.48
25945;SHT31;13742;49.306;8.636;2023-04-06T03:28:41;3.20;66.13
25945;SHT31;13742;49.306;8.636;2023-04-06T03:29:41;3.19;66.46
25945;SHT31;13742;49.306;8.636;2023-04-06T03:30:41;3.16;66.48
25945;SHT31;13742;49.306;8.636;2023-04-06T03:31:41;3.12;66.92
25945;SHT31;13742;49.306;8.636;2023-04-06T03:32:41;3.08;67.16
25945;SHT31;13742;49.306;8.636;2023-04-06T03:33:41;3.08;67.39
25945;SHT31;13742;49.306;8.636;2023-04-06T03:34:41;3.05;66.96
25945;SHT31;13742;49.306;8.636;2023-04-06T03:35:41;3.08;67.30
25945;SHT31;13742;49.306;8.636;2023-04-06T03:36:41;3.06;67.41
25945;SHT31;13742;49.306;8.636;2023-04-06T03:37:41;3.09;67.08
25945;SHT31;13742;49.306;8.636;2023-04-06T03:38:41;3.05;67.63
25945;SHT31;13742;49.306;8.636;2023-04-06T03:39:41;3.03;67.46
25945;SHT31;13742;49.306;8.636;2023-04-06T03:40:41;3.01;67.65
25945;SHT31;13742;49.306;8.636;2023-04-06T03:41:41;2.98;67.82
25945;SHT31;13742;49.306;8.636;2023-04-06T03:42:41;2.98;67.79
25945;SHT31;13742;49.306;8.636;2023-04-06T03:43:41;2.96;67.49
25945;SHT31;13742;49.306;8.636;2023-04-06T03:44:41;2.94;67.58
25945;SHT31;13742;49.306;8.636;2023-04-06T03:45:41;2.98;67.68
25945;SHT31;13742;49.306;8.636;2023-04-06T03:46:41;2.98;67.32
25945;SHT31;13742;49.306;8.636;2023-04-06T03:47:41;2.96;67.25
25945;SHT31;13742;49.306;8.636;2023-04-06T03:48:41;2.95;67.58
25945;SHT31;13742;49.306;8.636;2023-04-06T03:49:41;2.99;67.35
25945;SHT31;13742;49.306;8.636;2023-04-06T03:50:41;2.96;67.12
25945;SHT31;13742;49.306;8.636;2023-04-06T03:51:41;2.98;67.14
25945;SHT31;13742;49.306;8.636;2023-04-06T03:52:41;2.95;67.44
25945;SHT31;13742;49.306;8.636;2023-04-06T03:53:41;2.91;67.62
25945;SHT31;13742;49.306;8.636;2023-04-06T03:54:41;2.94;67.45
25945;SHT31;13742;49.306;8.636;2023-04-06T03:55:41;2.94;67.22
25945;SHT31;13742;49.306;8.636;2023-04-06T03:56:41;2.96;67.06
25945;SHT31;13742;49.306;8.636;2023-04-06T03:57:41;2.92;67.51
25945;SHT31;13742;49.306;8.636;2023-04-06T03:58:41;2.91;67.41
25945;SHT31;13742;49.306;8.636;2023-04-06T03:59:41;2.92;67.65
25945;SHT31;13742;49.306;8.636;2023-04-06T04:00:41;2.91;67.24
25945;SHT31;13742;49.306;8.636;2023-04-06T04:01:41;2.90;67.39
25945;SHT31;13742;49.306;8.636;2023-04-06T04:02:41;2.91;67.19
25945;SHT31;13742;49.306;8.636;2023-04-06T04:03:41;2.95;66.94
25945;SHT31;13742;49.306;8.636;2023-04-06T04:04:41;2.94;67.19
25945;SHT31;13742;49.306;8.636;2023-04-06T04:05:41;2.91;67.50
25945;SHT31;13742;49.306;8.636;2023-04-06T04:06:41;2.90;67.73
25945;SHT31;13742;49.306;8.636;2023-04-06T04:07:41;2.88;67.98
25945;SHT31;13742;49.306;8.636;2023-04-06T04:08:41;2.82;67.94
25945;SHT31;13742;49.306;8.636;2023-04-06T04:09:41;2.85;68.15
25945;SHT31;13742;49.306;8.636;2023-04-06T04:10:41;2.84;67.83
25945;SHT31;13742;49.306;8.636;2023-04-06T04:11:41;2.85;68.31
25945;SHT31;13742;49.306;8.636;2023-04-06T04:12:41;2.82;68.09
25945;SHT31;13742;49.306;8.636;2023-04-06T04:13:41;2.80;68.33
25945;SHT31;13742;49.306;8.636;2023-04-06T04:14:41;2.78;68.29
25945;SHT31;13742;49.306;8.636;2023-04-06T04:15:41;2.78;68.37
25945;SHT31;13742;49.306;8.636;2023-04-06T04:16:41;2.77;68.37
25945;SHT31;13742;49.306;8.636;2023-04-06T04:17:41;2.75;68.20
25945;SHT31;13742;49.306;8.636;2023-04-06T04:18:43;2.72;68.04
25945;SHT31;13742;49.306;8.636;2023-04-06T04:19:41;2.74;68.12
25945;SHT31;13742;49.306;8.636;2023-04-06T04:20:41;2.81;67.90
25945;SHT31;13742;49.306;8.636;2023-04-06T04:21:45;2.77;67.84
25945;SHT31;13742;49.306;8.636;2023-04-06T04:22:41;2.75;67.62
25945;SHT31;13742;49.306;8.636;2023-04-06T04:23:41;2.74;67.76
25945;SHT31;13742;49.306;8.636;2023-04-06T04:24:41;2.74;67.79
25945;SHT31;13742;49.306;8.636;2023-04-06T04:25:41;2.75;68.15
25945;SHT31;13742;49.306;8.636;2023-04-06T04:26:41;2.75;68.23
25945;SHT31;13742;49.306;8.636;2023-04-06T04:27:41;2.77;67.62
25945;SHT31;13742;49.306;8.636;2023-04-06T04:28:41;2.78;68.17
25945;SHT31;13742;49.306;8.636;2023-04-06T04:29:41;2.78;67.60
25945;SHT31;13742;49.306;8.636;2023-04-06T04:30:41;2.77;67.82
25945;SHT31;13742;49.306;8.636;2023-04-06T04:31:41;2.80;67.83
25945;SHT31;13742;49.306;8.636;2023-04-06T04:32:41;2.77;67.61
25945;SHT31;13742;49.306;8.636;2023-04-06T04:33:41;2.78;67.43
25945;SHT31;13742;49.306;8.636;2023-04-06T04:34:41;2.75;67.35
25945;SHT31;13742;49.306;8.636;2023-04-06T04:35:41;2.78;67.60
25945;SHT31;13742;49.306;8.636;2023-04-06T04:36:42;2.75;67.93
25945;SHT31;13742;49.306;8.636;2023-04-06T04:37:41;2.78;68.22
25945;SHT31;13742;49.306;8.636;2023-04-06T04:38:41;2.78;68.37
25945;SHT31;13742;49.306;8.636;2023-04-06T04:39:41;2.82;68.17
25945;SHT31;13742;49.306;8.636;2023-04-06T04:40:41;2.80;68.36
25945;SHT31;13742;49.306;8.636;2023-04-06T04:41:41;2.80;68.11
25945;SHT31;13742;49.306;8.636;2023-04-06T04:42:41;2.77;67.63
25945;SHT31;13742;49.306;8.636;2023-04-06T04:43:41;2.75;68.07
25945;SHT31;13742;49.306;8.636;2023-04-06T04:44:41;2.75;68.46
25945;SHT31;13742;49.306;8.636;2023-04-06T04:45:41;2.77;68.32
25945;SHT31;13742;49.306;8.636;2023-04-06T04:46:41;2.75;68.27
25945;SHT31;13742;49.306;8.636;2023-04-06T04:47:41;2.78;68.31
25945;SHT31;13742;49.306;8.636;2023-04-06T04:48:41;2.77;68.03
25945;SHT31;13742;49.306;8.636;2023-04-06T04:49:41;2.78;68.47
25945;SHT31;13742;49.306;8.636;2023-04-06T04:50:41;2.78;68.52
25945;SHT31;13742;49.306;8.636;2023-04-06T04:51:41;2.75;68.11
25945;SHT31;13742;49.306;8.636;2023-04-06T04:52:41;2.77;67.99
25945;SHT31;13742;49.306;8.636;2023-04-06T04:53:41;2.80;67.69
25945;SHT31;13742;49.306;8.636;2023-04-06T04:54:41;2.78;67.94
25945;SHT31;13742;49.306;8.636;2023-04-06T04:55:41;2.77;68.22
25945;SHT31;13742;49.306;8.636;2023-04-06T04:56:41;2.81;68.06
25945;SHT31;13742;49.306;8.636;2023-04-06T04:57:41;2.77;68.10
25945;SHT31;13742;49.306;8.636;2023-04-06T04:58:41;2.75;68.00
25945;SHT31;13742;49.306;8.636;2023-04-06T04:59:42;2.72;68.51
25945;SHT31;13742;49.306;8.636;2023-04-06T05:00:41;2.71;68.28
25945;SHT31;13742;49.306;8.636;2023-04-06T05:01:41;2.71;68.00
25945;SHT31;13742;49.306;8.636;2023-04-06T05:02:41;2.70;68.16
25945;SHT31;13742;49.306;8.636;2023-04-06T05:03:41;2.70;68.28
25945;SHT31;13742;49.306;8.636;2023-04-06T05:04:41;2.68;68.31
25945;SHT31;13742;49.306;8.636;2023-04-06T05:05:41;2.67;68.12
25945;SHT31;13742;49.306;8.636;2023-04-06T05:06:41;2.67;68.34
25945;SHT31;13742;49.306;8.636;2023-04-06T05:07:41;2.70;67.97
25945;SHT31;13742;49.306;8.636;2023-04-06T05:08:41;2.70;68.17
25945;SHT31;13742;49.306;8.636;2023-04-06T05:09:41;2.65;68.27
25945;SHT31;13742;49.306;8.636;2023-04-06T05:10:41;2.64;68.42
25945;SHT31;13742;49.306;8.636;2023-04-06T05:11:41;2.67;68.26
25945;SHT31;13742;49.306;8.636;2023-04-06T05:12:41;2.63;68.55
25945;SHT31;13742;49.306;8.636;2023-04-06T05:13:41;2.59;68.43
25945;SHT31;13742;49.306;8.636;2023-04-06T05:14:41;2.61;68.26
25945;SHT31;13742;49.306;8.636;2023-04-06T05:15:41;2.61;68.37
25945;SHT31;13742;49.306;8.636;2023-04-06T05:16:41;2.57;68.71
25945;SHT31;13742;49.306;8.636;2023-04-06T05:17:41;2.51;68.96
25945;SHT31;13742;49.306;8.636;2023-04-06T05:18:41;2.57;69.06
25945;SHT31;13742;49.306;8.636;2023-04-06T05:19:41;2.59;68.40
25945;SHT31;13742;49.306;8.636;2023-04-06T05:20:42;2.59;68.44
25945;SHT31;13742;49.306;8.636;2023-04-06T05:21:41;2.57;68.44
25945;SHT31;13742;49.306;8.636;2023-04-06T05:22:41;2.59;68.25
25945;SHT31;13742;49.306;8.636;2023-04-06T05:23:41;2.56;68.43
25945;SHT31;13742;49.306;8.636;2023-04-06T05:24:41;2.56;68.91
25945;SHT31;13742;49.306;8.636;2023-04-06T05:25:41;2.57;68.60
25945;SHT31;13742;49.306;8.636;2023-04-06T05:26:41;2.56;68.75
25945;SHT31;13742;49.306;8.636;2023-04-06T05:27:41;2.59;68.83
25945;SHT31;13742;49.306;8.636;2023-04-06T05:28:42;2.60;68.76
25945;SHT31;13742;49.306;8.636;2023-04-06T05:29:41;2.61;68.33
25945;SHT31;13742;49.306;8.636;2023-04-06T05:30:42;2.63;68.65
25945;SHT31;13742;49.306;8.636;2023-04-06T05:31:41;2.60;69.00
25945;SHT31;13742;49.306;8.636;2023-04-06T05:32:42;2.59;68.67
25945;SHT31;13742;49.306;8.636;2023-04-06T05:33:41;2.61;68.62
25945;SHT31;13742;49.306;8.636;2023-04-06T05:34:41;2.61;68.53
25945;SHT31;13742;49.306;8.636;2023-04-06T05:35:41;2.64;68.31
25945;SHT31;13742;49.306;8.636;2023-04-06T05:36:41;2.67;67.99
25945;SHT31;13742;49.306;8.636;2023-04-06T05:37:41;2.71;68.19
25945;SHT31;13742;49.306;8.636;2023-04-06T05:38:41;2.74;69.19
25945;SHT31;13742;49.306;8.636;2023-04-06T05:39:41;2.80;69.15
25945;SHT31;13742;49.306;8.636;2023-04-06T05:40:41;2.78;68.39
25945;SHT31;13742;49.306;8.636;2023-04-06T05:41:41;2.78;68.05
25945;SHT31;13742;49.306;8.636;2023-04-06T05:42:44;2.77;68.09
25945;SHT31;13742;49.306;8.636;2023-04-06T05:43:41;2.78;68.17
25945;SHT31;13742;49.306;8.636;2023-04-06T05:44:41;2.77;68.11
25945;SHT31;13742;49.306;8.636;2023-04-06T05:45:44;2.78;67.99
25945;SHT31;13742;49.306;8.636;2023-04-06T05:46:41;2.78;68.14
25945;SHT31;13742;49.306;8.636;2023-04-06T05:47:41;2.78;68.09
25945;SHT31;13742;49.306;8.636;2023-04-06T05:48:41;2.75;68.54
25945;SHT31;13742;49.306;8.636;2023-04-06T05:49:44;2.77;68.27
25945;SHT31;13742;49.306;8.636;2023-04-06T05:50:41;2.78;68.50
25945;SHT31;13742;49.306;8.636;2023-04-06T05:51:41;2.77;68.65
25945;SHT31;13742;49.306;8.636;2023-04-06T05:52:43;2.75;68.76
25945;SHT31;13742;49.306;8.636;2023-04-06T05:53:41;2.77;68.61
25945;SHT31;13742;49.306;8.636;2023-04-06T05:54:41;2.80;68.29
25945;SHT31;13742;49.306;8.636;2023-04-06T05:55:41;2.80;68.08
25945;SHT31;13742;49.306;8.636;2023-04-06T05:56:41;2.78;68.50
25945;SHT31;13742;49.306;8.636;2023-04-06T05:57:41;2.78;68.35
25945;SHT31;13742;49.306;8.636;2023-04-06T05:58:41;2.78;68.17
25945;SHT31;13742;49.306;8.636;2023-04-06T05:59:41;2.81;68.34
25945;SHT31;13742;49.306;8.636;2023-04-06T06:00:42;2.82;68.20
25945;SHT31;13742;49.306;8.636;2023-04-06T06:01:41;2.82;68.48
25945;SHT31;13742;49.306;8.636;2023-04-06T06:02:42;2.84;68.53
25945;SHT31;13742;49.306;8.636;2023-04-06T06:03:41;2.82;68.37
25945;SHT31;13742;49.306;8.636;2023-04-06T06:04:41;2.87;68.20
25945;SHT31;13742;49.306;8.636;2023-04-06T06:05:41;2.88;68.17
25945;SHT31;13742;49.306;8.636;2023-04-06T06:06:41;2.88;68.49
25945;SHT31;13742;49.306;8.636;2023-04-06T06:07:41;2.91;68.09
25945;SHT31;13742;49.306;8.636;2023-04-06T06:08:41;2.94;68.39
25945;SHT31;13742;49.306;8.636;2023-04-06T06:09:41;2.94;68.11
25945;SHT31;13742;49.306;8.636;2023-04-06T06:10:41;2.94;68.05
25945;SHT31;13742;49.306;8.636;2023-04-06T06:11:41;2.99;68.12
25945;SHT31;13742;49.306;8.636;2023-04-06T06:12:41;3.01;68.06
25945;SHT31;13742;49.306;8.636;2023-04-06T06:13:41;3.01;68.05
25945;SHT31;13742;49.306;8.636;2023-04-06T06:14:41;3.02;68.08
25945;SHT31;13742;49.306;8.636;2023-04-06T06:15:41;3.05;68.39
25945;SHT31;13742;49.306;8.636;2023-04-06T06:16:41;3.02;68.11
25945;SHT31;13742;49.306;8.636;2023-04-06T06:17:41;3.06;68.12
25945;SHT31;13742;49.306;8.636;2023-04-06T06:18:41;3.08;68.11
25945;SHT31;13742;49.306;8.636;2023-04-06T06:19:41;3.08;67.97
25945;SHT31;13742;49.306;8.636;2023-04-06T06:20:41;3.09;68.09
25945;SHT31;13742;49.306;8.636;2023-04-06T06:21:41;3.09;68.25
25945;SHT31;13742;49.306;8.636;2023-04-06T06:22:41;3.12;68.17
25945;SHT31;13742;49.306;8.636;2023-04-06T06:23:42;3.13;68.22
25945;SHT31;13742;49.306;8.636;2023-04-06T06:24:41;3.18;68.25